Aeroporto :
LOGIN :

Iscrizione | Disclaimer

   EN    FR    IT 

 










Sommario :    VFR   VFR Marginale   IFR   IFR Intensivo   IFR Molto Intensivo
Visibilità : 
Base nubi : 
>= 8 km
>= 3000ft
5 / 8 km
1000 / 3000 ft
1500m / 5 km
500 / 1000 ft
800 / 1500m
200 / 500 ft
< 800m
< 200 ft
Simboli :   Temporali  Nebbia  Neve Forte  Precipitazioni Forti  Vento > 20 kt
SIGMETs :   Varie  Temporali  Ghiacco  Turbolenza  Onda orograficha  Ceneri Vulcaniche






- Altitudine del aeroporto : 425 ft
- Codice IATA : DTM


EDLW - Dortmund

ULTIMO METAR :
  • 242220Z AUTO VRB02KT 6000 // OVC007/// M00/M01 Q1022

METARs OBSOLETI :
  • 242150Z AUTO 18005KT 6000 // OVC006/// M01/M02 Q1023
  • 242120Z AUTO 21006KT 6000 // OVC005/// M00/M01 Q1023
  • 242050Z 20004KT 6000 OVC006 M00/M01 Q1023
  • 242020Z 20005KT 6000 OVC006 M00/M01 Q1023
  • 241950Z 23004KT 6000 OVC006 M00/M01 Q1023

TAF TAF EDLW
Valido dal 24 a 18 ore il 25 a 18 ore UTC


241700Z 2418/2518 18005KT 7000 OVC008
BECMG 2421/2423 BKN012
TEMPO 2500/2503 4500 BR



MetMap, La meteo Aeronautica in un colpo d'occhio ! - Copyright ORBIFLY Dicembre 2007 - Disclaimer

ORBIFLY MET'MAP TEAM :

Programmazione e sviluppo : Alexandra Zaïnal
Concezione : Baudouin d'Aumeries
Aiuto per la programmazione : Marc-Olivier Méhu
Supporto tecnico e logistico : Manuel Goepfert
Aiuto per la traduzione : Arnaldo La Scala

Contatto : metmap@orbifly.com




FONTI E CREDITI :

   NOAA